フランクフルト の空港の天気 - METARとTAF

フランクフルト国際空港 ( EDDF / FRA ) - ドイツ フランクフルト・アム・マイン
飛行場実況気象(Metar)
観測時間07/16 08:20 CEST (07/16 06:20 UTC)
風向・風速南 2m/s
視程10km以上
天気現象周辺でしゅう雨
少しの雲 雲底高度 1520m
全天の4割程度の雲 雲底高度 3660m
気温20℃
湿度68%
気圧1014hPa
METAREDDF 160620Z 18004KT 140V220 9999 VCSH FEW050CB SCT120 20/14 Q1014 NOSIG
過去の天気等 Google飛行場航空写真 Wunderground天気予報

過去48時間のMETAR

飛行場予報(TAF)
発表時間: 7/16 07:00 CEST (7/16 05:00 UTC)
予報対象時間: 16日8時 CEST ~ 17日14時 CEST
風向・風速南 2m/s
視程10km以上
なし
16日14時 CEST ~ 16日23時 CEST に 確率 40% で一時的に
風向・風速東北東 6m/s
天気現象雷雨
全天の4割程度の積乱雲 雲底高度 1370m
TAF EDDF 160500Z 1606/1712 19004KT CAVOK
PROB40 TEMPO 1612/1621 07012KT TSRA SCT045CB